sensor_id;sensor_type;location;lat;lon;timestamp;temperature;humidity
7736;DHT22;3911;48.830;9.072;2022-09-12T00:02:10;23.60;57.00
7736;DHT22;3911;48.830;9.072;2022-09-12T00:04:36;23.60;57.00
7736;DHT22;3911;48.830;9.072;2022-09-12T00:07:03;23.60;57.00
7736;DHT22;3911;48.830;9.072;2022-09-12T00:09:29;23.60;57.00
7736;DHT22;3911;48.830;9.072;2022-09-12T00:11:57;23.70;57.50
7736;DHT22;3911;48.830;9.072;2022-09-12T00:14:24;23.60;57.80
7736;DHT22;3911;48.830;9.072;2022-09-12T00:16:51;23.60;57.10
7736;DHT22;3911;48.830;9.072;2022-09-12T00:19:19;23.60;57.10
7736;DHT22;3911;48.830;9.072;2022-09-12T00:21:46;23.60;57.10
7736;DHT22;3911;48.830;9.072;2022-09-12T00:24:14;23.60;57.10
7736;DHT22;3911;48.830;9.072;2022-09-12T00:26:41;23.60;57.10
7736;DHT22;3911;48.830;9.072;2022-09-12T00:29:08;23.60;57.10
7736;DHT22;3911;48.830;9.072;2022-09-12T00:31:34;23.60;57.10
7736;DHT22;3911;48.830;9.072;2022-09-12T00:34:01;23.60;57.10
7736;DHT22;3911;48.830;9.072;2022-09-12T00:36:27;23.60;57.20
7736;DHT22;3911;48.830;9.072;2022-09-12T00:38:54;23.60;57.20
7736;DHT22;3911;48.830;9.072;2022-09-12T00:41:22;23.60;57.20
7736;DHT22;3911;48.830;9.072;2022-09-12T00:43:49;23.60;57.20
7736;DHT22;3911;48.830;9.072;2022-09-12T00:46:23;23.60;57.10
7736;DHT22;3911;48.830;9.072;2022-09-12T00:48:49;23.60;57.20
7736;DHT22;3911;48.830;9.072;2022-09-12T00:51:13;23.60;57.20
7736;DHT22;3911;48.830;9.072;2022-09-12T00:53:40;23.60;57.20
7736;DHT22;3911;48.830;9.072;2022-09-12T00:56:06;23.60;57.20
7736;DHT22;3911;48.830;9.072;2022-09-12T00:58:36;23.50;57.10
7736;DHT22;3911;48.830;9.072;2022-09-12T01:01:02;23.50;57.10
7736;DHT22;3911;48.830;9.072;2022-09-12T01:03:29;23.50;57.10
7736;DHT22;3911;48.830;9.072;2022-09-12T01:06:14;23.50;57.10
7736;DHT22;3911;48.830;9.072;2022-09-12T01:08:40;23.50;57.10
7736;DHT22;3911;48.830;9.072;2022-09-12T01:11:07;23.50;57.10
7736;DHT22;3911;48.830;9.072;2022-09-12T01:13:33;23.50;57.10
7736;DHT22;3911;48.830;9.072;2022-09-12T01:16:01;23.50;57.10
7736;DHT22;3911;48.830;9.072;2022-09-12T01:18:34;23.50;57.10
7736;DHT22;3911;48.830;9.072;2022-09-12T01:21:10;23.50;57.10
7736;DHT22;3911;48.830;9.072;2022-09-12T01:23:41;23.50;57.10
7736;DHT22;3911;48.830;9.072;2022-09-12T01:28:57;23.50;57.10
7736;DHT22;3911;48.830;9.072;2022-09-12T01:31:29;23.50;57.00
7736;DHT22;3911;48.830;9.072;2022-09-12T01:34:04;23.50;57.10
7736;DHT22;3911;48.830;9.072;2022-09-12T01:36:38;23.50;57.10
7736;DHT22;3911;48.830;9.072;2022-09-12T01:39:05;23.50;57.10
7736;DHT22;3911;48.830;9.072;2022-09-12T01:41:47;23.50;57.10
7736;DHT22;3911;48.830;9.072;2022-09-12T01:44:18;23.50;57.10
7736;DHT22;3911;48.830;9.072;2022-09-12T01:46:45;23.50;57.10
7736;DHT22;3911;48.830;9.072;2022-09-12T01:51:56;23.40;57.00
7736;DHT22;3911;48.830;9.072;2022-09-12T01:54:25;23.40;57.00
7736;DHT22;3911;48.830;9.072;2022-09-12T01:56:50;23.50;57.10
7736;DHT22;3911;48.830;9.072;2022-09-12T01:59:19;23.40;57.00
7736;DHT22;3911;48.830;9.072;2022-09-12T02:01:46;23.40;57.00
7736;DHT22;3911;48.830;9.072;2022-09-12T02:04:19;23.40;57.10
7736;DHT22;3911;48.830;9.072;2022-09-12T02:06:52;23.40;57.10
7736;DHT22;3911;48.830;9.072;2022-09-12T02:09:22;23.40;57.00
7736;DHT22;3911;48.830;9.072;2022-09-12T02:11:47;23.40;57.00
7736;DHT22;3911;48.830;9.072;2022-09-12T02:14:16;23.40;57.10
7736;DHT22;3911;48.830;9.072;2022-09-12T02:16:47;23.40;57.10
7736;DHT22;3911;48.830;9.072;2022-09-12T02:19:15;23.40;57.10
7736;DHT22;3911;48.830;9.072;2022-09-12T02:21:43;23.40;57.00
7736;DHT22;3911;48.830;9.072;2022-09-12T02:24:08;23.40;57.10
7736;DHT22;3911;48.830;9.072;2022-09-12T02:26:39;23.40;57.00
7736;DHT22;3911;48.830;9.072;2022-09-12T02:29:03;23.40;57.00
7736;DHT22;3911;48.830;9.072;2022-09-12T02:34:28;23.40;57.00
7736;DHT22;3911;48.830;9.072;2022-09-12T02:39:27;23.40;57.00
7736;DHT22;3911;48.830;9.072;2022-09-12T02:41:55;23.40;57.00
7736;DHT22;3911;48.830;9.072;2022-09-12T02:44:22;23.40;57.00
7736;DHT22;3911;48.830;9.072;2022-09-12T02:46:51;23.40;57.00
7736;DHT22;3911;48.830;9.072;2022-09-12T02:49:16;23.30;56.90
7736;DHT22;3911;48.830;9.072;2022-09-12T02:51:42;23.40;57.00
7736;DHT22;3911;48.830;9.072;2022-09-12T02:54:09;23.30;56.90
7736;DHT22;3911;48.830;9.072;2022-09-12T02:56:39;23.30;56.90
7736;DHT22;3911;48.830;9.072;2022-09-12T02:59:03;23.30;56.90
7736;DHT22;3911;48.830;9.072;2022-09-12T03:02:06;23.30;57.00
7736;DHT22;3911;48.830;9.072;2022-09-12T03:04:43;23.30;56.90
7736;DHT22;3911;48.830;9.072;2022-09-12T03:07:22;23.30;56.90
7736;DHT22;3911;48.830;9.072;2022-09-12T03:10:06;23.30;56.90
7736;DHT22;3911;48.830;9.072;2022-09-12T03:12:46;23.40;56.80
7736;DHT22;3911;48.830;9.072;2022-09-12T03:15:18;23.40;56.70
7736;DHT22;3911;48.830;9.072;2022-09-12T03:17:45;23.40;56.70
7736;DHT22;3911;48.830;9.072;2022-09-12T03:20:13;23.40;56.60
7736;DHT22;3911;48.830;9.072;2022-09-12T03:22:52;23.50;56.50
7736;DHT22;3911;48.830;9.072;2022-09-12T03:25:25;23.50;56.30
7736;DHT22;3911;48.830;9.072;2022-09-12T03:27:53;23.60;56.40
7736;DHT22;3911;48.830;9.072;2022-09-12T03:30:17;23.60;56.20
7736;DHT22;3911;48.830;9.072;2022-09-12T03:32:45;23.70;56.10
7736;DHT22;3911;48.830;9.072;2022-09-12T03:35:11;23.70;56.10
7736;DHT22;3911;48.830;9.072;2022-09-12T03:37:38;23.80;55.90
7736;DHT22;3911;48.830;9.072;2022-09-12T03:40:06;23.80;56.00
7736;DHT22;3911;48.830;9.072;2022-09-12T03:42:33;23.80;55.90
7736;DHT22;3911;48.830;9.072;2022-09-12T03:44:59;23.80;55.90
7736;DHT22;3911;48.830;9.072;2022-09-12T03:47:26;23.80;55.80
7736;DHT22;3911;48.830;9.072;2022-09-12T03:49:53;23.80;55.80
7736;DHT22;3911;48.830;9.072;2022-09-12T03:52:21;23.80;55.90
7736;DHT22;3911;48.830;9.072;2022-09-12T03:54:48;23.80;55.80
7736;DHT22;3911;48.830;9.072;2022-09-12T03:57:15;23.80;55.80
7736;DHT22;3911;48.830;9.072;2022-09-12T03:59:43;23.80;55.70
7736;DHT22;3911;48.830;9.072;2022-09-12T04:02:09;23.80;55.60
7736;DHT22;3911;48.830;9.072;2022-09-12T04:04:36;23.80;55.60
7736;DHT22;3911;48.830;9.072;2022-09-12T04:07:02;23.80;55.60
7736;DHT22;3911;48.830;9.072;2022-09-12T04:09:29;23.80;55.50
7736;DHT22;3911;48.830;9.072;2022-09-12T04:11:56;23.80;55.70
7736;DHT22;3911;48.830;9.072;2022-09-12T04:14:22;23.80;55.60
7736;DHT22;3911;48.830;9.072;2022-09-12T04:16:49;23.80;55.50
7736;DHT22;3911;48.830;9.072;2022-09-12T04:19:15;23.80;55.60
7736;DHT22;3911;48.830;9.072;2022-09-12T04:21:42;23.80;55.60
7736;DHT22;3911;48.830;9.072;2022-09-12T04:24:09;23.80;55.70
7736;DHT22;3911;48.830;9.072;2022-09-12T04:26:35;23.70;55.60
7736;DHT22;3911;48.830;9.072;2022-09-12T04:29:02;23.70;55.90
7736;DHT22;3911;48.830;9.072;2022-09-12T04:31:29;23.70;55.70
7736;DHT22;3911;48.830;9.072;2022-09-12T04:33:57;23.70;55.80
7736;DHT22;3911;48.830;9.072;2022-09-12T04:36:24;23.70;55.70
7736;DHT22;3911;48.830;9.072;2022-09-12T04:38:51;23.60;55.70
7736;DHT22;3911;48.830;9.072;2022-09-12T04:41:21;23.60;55.90
7736;DHT22;3911;48.830;9.072;2022-09-12T04:43:45;23.60;55.90
7736;DHT22;3911;48.830;9.072;2022-09-12T04:46:12;23.60;56.00
7736;DHT22;3911;48.830;9.072;2022-09-12T04:48:38;23.50;56.00
7736;DHT22;3911;48.830;9.072;2022-09-12T04:51:08;23.50;56.00
7736;DHT22;3911;48.830;9.072;2022-09-12T04:53:34;23.50;56.00
7736;DHT22;3911;48.830;9.072;2022-09-12T04:56:03;23.40;56.10
7736;DHT22;3911;48.830;9.072;2022-09-12T04:58:30;23.40;56.10
7736;DHT22;3911;48.830;9.072;2022-09-12T05:01:02;23.40;56.10
7736;DHT22;3911;48.830;9.072;2022-09-12T05:03:23;23.40;56.10
7736;DHT22;3911;48.830;9.072;2022-09-12T05:05:50;23.40;56.10
7736;DHT22;3911;48.830;9.072;2022-09-12T05:08:16;23.50;56.00
7736;DHT22;3911;48.830;9.072;2022-09-12T05:10:43;23.50;55.80
7736;DHT22;3911;48.830;9.072;2022-09-12T05:13:10;23.50;56.10
7736;DHT22;3911;48.830;9.072;2022-09-12T05:15:37;23.50;55.90
7736;DHT22;3911;48.830;9.072;2022-09-12T05:18:05;23.50;55.90
7736;DHT22;3911;48.830;9.072;2022-09-12T05:20:32;23.50;55.80
7736;DHT22;3911;48.830;9.072;2022-09-12T05:22:59;23.50;55.80
7736;DHT22;3911;48.830;9.072;2022-09-12T05:25:27;23.60;55.80
7736;DHT22;3911;48.830;9.072;2022-09-12T05:27:53;23.60;55.70
7736;DHT22;3911;48.830;9.072;2022-09-12T05:30:20;23.50;55.70
7736;DHT22;3911;48.830;9.072;2022-09-12T05:32:47;23.50;55.70
7736;DHT22;3911;48.830;9.072;2022-09-12T05:35:13;23.60;55.70
7736;DHT22;3911;48.830;9.072;2022-09-12T05:37:41;23.60;55.60
7736;DHT22;3911;48.830;9.072;2022-09-12T05:40:07;23.60;55.70
7736;DHT22;3911;48.830;9.072;2022-09-12T05:42:34;23.60;56.40
7736;DHT22;3911;48.830;9.072;2022-09-12T05:45:01;23.60;56.40
7736;DHT22;3911;48.830;9.072;2022-09-12T05:47:29;23.60;55.50
7736;DHT22;3911;48.830;9.072;2022-09-12T05:49:56;23.60;55.40
7736;DHT22;3911;48.830;9.072;2022-09-12T05:52:23;23.70;55.20
7736;DHT22;3911;48.830;9.072;2022-09-12T05:54:51;23.70;55.30
7736;DHT22;3911;48.830;9.072;2022-09-12T05:57:18;23.70;55.10
7736;DHT22;3911;48.830;9.072;2022-09-12T05:59:45;23.80;55.10
7736;DHT22;3911;48.830;9.072;2022-09-12T06:02:12;23.70;55.00
7736;DHT22;3911;48.830;9.072;2022-09-12T06:04:38;23.80;55.10
7736;DHT22;3911;48.830;9.072;2022-09-12T06:07:05;23.80;55.10
7736;DHT22;3911;48.830;9.072;2022-09-12T06:09:32;23.80;55.10
7736;DHT22;3911;48.830;9.072;2022-09-12T06:11:58;23.80;55.00
7736;DHT22;3911;48.830;9.072;2022-09-12T06:14:26;23.80;55.80
7736;DHT22;3911;48.830;9.072;2022-09-12T06:16:53;23.80;55.00
7736;DHT22;3911;48.830;9.072;2022-09-12T06:19:21;23.80;54.90
7736;DHT22;3911;48.830;9.072;2022-09-12T06:21:47;23.80;54.80
7736;DHT22;3911;48.830;9.072;2022-09-12T06:24:16;23.80;54.70
7736;DHT22;3911;48.830;9.072;2022-09-12T06:26:42;23.80;54.70
7736;DHT22;3911;48.830;9.072;2022-09-12T06:29:09;23.90;54.60
7736;DHT22;3911;48.830;9.072;2022-09-12T06:31:35;24.00;54.80
7736;DHT22;3911;48.830;9.072;2022-09-12T06:34:02;23.90;54.60
7736;DHT22;3911;48.830;9.072;2022-09-12T06:36:30;23.80;54.70
7736;DHT22;3911;48.830;9.072;2022-09-12T06:38:58;23.90;54.90
7736;DHT22;3911;48.830;9.072;2022-09-12T06:41:24;23.80;54.70
7736;DHT22;3911;48.830;9.072;2022-09-12T06:43:51;23.80;54.80
7736;DHT22;3911;48.830;9.072;2022-09-12T06:46:17;23.80;54.90
7736;DHT22;3911;48.830;9.072;2022-09-12T06:48:44;23.80;54.90
7736;DHT22;3911;48.830;9.072;2022-09-12T06:51:12;23.80;55.20
7736;DHT22;3911;48.830;9.072;2022-09-12T06:53:39;23.90;54.90
7736;DHT22;3911;48.830;9.072;2022-09-12T06:56:10;23.90;54.70
7736;DHT22;3911;48.830;9.072;2022-09-12T06:58:35;23.90;54.70
7736;DHT22;3911;48.830;9.072;2022-09-12T07:01:08;23.90;54.60
7736;DHT22;3911;48.830;9.072;2022-09-12T07:03:33;24.00;54.50
7736;DHT22;3911;48.830;9.072;2022-09-12T07:06:10;24.00;54.60
7736;DHT22;3911;48.830;9.072;2022-09-12T07:08:36;24.00;54.60
7736;DHT22;3911;48.830;9.072;2022-09-12T07:11:10;24.00;54.70
7736;DHT22;3911;48.830;9.072;2022-09-12T07:13:35;24.10;54.50
7736;DHT22;3911;48.830;9.072;2022-09-12T07:16:02;24.10;54.60
7736;DHT22;3911;48.830;9.072;2022-09-12T07:18:29;24.10;54.50
7736;DHT22;3911;48.830;9.072;2022-09-12T07:20:55;24.20;54.40
7736;DHT22;3911;48.830;9.072;2022-09-12T07:23:22;24.20;54.40
7736;DHT22;3911;48.830;9.072;2022-09-12T07:25:52;24.10;55.60
7736;DHT22;3911;48.830;9.072;2022-09-12T07:28:19;24.10;55.60
7736;DHT22;3911;48.830;9.072;2022-09-12T07:30:45;24.00;55.20
7736;DHT22;3911;48.830;9.072;2022-09-12T07:33:13;23.90;53.80
7736;DHT22;3911;48.830;9.072;2022-09-12T07:35:40;23.90;53.80
7736;DHT22;3911;48.830;9.072;2022-09-12T07:38:06;23.90;54.50
7736;DHT22;3911;48.830;9.072;2022-09-12T07:40:33;23.90;54.60
7736;DHT22;3911;48.830;9.072;2022-09-12T07:43:00;24.00;54.80
7736;DHT22;3911;48.830;9.072;2022-09-12T07:45:26;24.10;55.00
7736;DHT22;3911;48.830;9.072;2022-09-12T07:47:53;24.20;56.00
7736;DHT22;3911;48.830;9.072;2022-09-12T07:50:19;24.00;56.50
7736;DHT22;3911;48.830;9.072;2022-09-12T07:52:47;24.10;56.50
7736;DHT22;3911;48.830;9.072;2022-09-12T07:55:14;24.10;56.50
7736;DHT22;3911;48.830;9.072;2022-09-12T07:57:41;24.10;56.50
7736;DHT22;3911;48.830;9.072;2022-09-12T08:00:09;24.20;57.20
7736;DHT22;3911;48.830;9.072;2022-09-12T08:02:35;24.20;56.50
7736;DHT22;3911;48.830;9.072;2022-09-12T08:05:02;24.20;56.50
7736;DHT22;3911;48.830;9.072;2022-09-12T08:07:29;24.20;56.50
7736;DHT22;3911;48.830;9.072;2022-09-12T08:09:57;24.20;56.30
7736;DHT22;3911;48.830;9.072;2022-09-12T08:12:26;24.20;56.40
7736;DHT22;3911;48.830;9.072;2022-09-12T08:14:51;24.20;56.60
7736;DHT22;3911;48.830;9.072;2022-09-12T08:17:18;24.10;56.50
7736;DHT22;3911;48.830;9.072;2022-09-12T08:19:45;24.10;56.60
7736;DHT22;3911;48.830;9.072;2022-09-12T08:22:11;24.00;56.50
7736;DHT22;3911;48.830;9.072;2022-09-12T08:24:38;24.00;56.90
7736;DHT22;3911;48.830;9.072;2022-09-12T08:27:05;23.90;57.70
7736;DHT22;3911;48.830;9.072;2022-09-12T08:29:32;23.90;57.60
7736;DHT22;3911;48.830;9.072;2022-09-12T08:31:58;23.90;57.80
7736;DHT22;3911;48.830;9.072;2022-09-12T08:34:26;23.90;57.70
7736;DHT22;3911;48.830;9.072;2022-09-12T08:36:53;23.90;57.60
7736;DHT22;3911;48.830;9.072;2022-09-12T08:39:20;24.00;57.60
7736;DHT22;3911;48.830;9.072;2022-09-12T08:41:50;24.10;57.50
7736;DHT22;3911;48.830;9.072;2022-09-12T08:44:20;24.10;57.40
7736;DHT22;3911;48.830;9.072;2022-09-12T08:49:26;24.20;57.50
7736;DHT22;3911;48.830;9.072;2022-09-12T08:51:50;24.10;57.90
7736;DHT22;3911;48.830;9.072;2022-09-12T08:54:20;24.20;57.70
7736;DHT22;3911;48.830;9.072;2022-09-12T08:56:45;24.10;57.50
7736;DHT22;3911;48.830;9.072;2022-09-12T08:59:12;24.20;57.90
7736;DHT22;3911;48.830;9.072;2022-09-12T09:01:41;24.30;57.30
7736;DHT22;3911;48.830;9.072;2022-09-12T09:04:27;24.30;57.20
7736;DHT22;3911;48.830;9.072;2022-09-12T09:06:57;24.20;57.00
7736;DHT22;3911;48.830;9.072;2022-09-12T09:09:34;24.30;57.40
7736;DHT22;3911;48.830;9.072;2022-09-12T09:12:02;24.40;57.50
7736;DHT22;3911;48.830;9.072;2022-09-12T09:17:20;24.30;56.80
7736;DHT22;3911;48.830;9.072;2022-09-12T09:19:49;24.30;55.80
7736;DHT22;3911;48.830;9.072;2022-09-12T09:22:24;24.40;55.90
7736;DHT22;3911;48.830;9.072;2022-09-12T09:24:48;24.40;56.60
7736;DHT22;3911;48.830;9.072;2022-09-12T09:27:20;24.20;54.50
7736;DHT22;3911;48.830;9.072;2022-09-12T09:29:45;24.00;54.10
7736;DHT22;3911;48.830;9.072;2022-09-12T09:32:17;23.90;53.80
7736;DHT22;3911;48.830;9.072;2022-09-12T09:34:40;23.80;53.30
7736;DHT22;3911;48.830;9.072;2022-09-12T09:37:41;23.70;51.90
7736;DHT22;3911;48.830;9.072;2022-09-12T09:40:00;23.80;53.00
7736;DHT22;3911;48.830;9.072;2022-09-12T09:42:40;24.00;52.90
7736;DHT22;3911;48.830;9.072;2022-09-12T09:45:16;23.90;52.60
7736;DHT22;3911;48.830;9.072;2022-09-12T09:50:15;23.80;52.60
7736;DHT22;3911;48.830;9.072;2022-09-12T09:52:43;23.70;52.50
7736;DHT22;3911;48.830;9.072;2022-09-12T09:55:13;23.70;52.50
7736;DHT22;3911;48.830;9.072;2022-09-12T09:57:38;23.70;52.50
7736;DHT22;3911;48.830;9.072;2022-09-12T10:02:43;23.80;52.20
7736;DHT22;3911;48.830;9.072;2022-09-12T10:05:15;23.80;52.10
7736;DHT22;3911;48.830;9.072;2022-09-12T10:07:37;23.70;51.40
7736;DHT22;3911;48.830;9.072;2022-09-12T10:12:49;23.70;51.40
7736;DHT22;3911;48.830;9.072;2022-09-12T10:15:22;23.60;50.60
7736;DHT22;3911;48.830;9.072;2022-09-12T10:17:49;23.60;50.50
7736;DHT22;3911;48.830;9.072;2022-09-12T10:20:41;23.60;50.10
7736;DHT22;3911;48.830;9.072;2022-09-12T10:23:22;23.70;51.70
7736;DHT22;3911;48.830;9.072;2022-09-12T10:25:52;23.80;53.10
7736;DHT22;3911;48.830;9.072;2022-09-12T10:28:30;23.80;53.70
7736;DHT22;3911;48.830;9.072;2022-09-12T10:30:51;23.80;54.10
7736;DHT22;3911;48.830;9.072;2022-09-12T10:33:18;23.80;54.40
7736;DHT22;3911;48.830;9.072;2022-09-12T10:35:45;23.80;54.50
7736;DHT22;3911;48.830;9.072;2022-09-12T10:38:15;23.80;54.70
7736;DHT22;3911;48.830;9.072;2022-09-12T10:40:40;23.80;54.80
7736;DHT22;3911;48.830;9.072;2022-09-12T10:43:17;23.80;54.90
7736;DHT22;3911;48.830;9.072;2022-09-12T10:45:43;23.90;55.10
7736;DHT22;3911;48.830;9.072;2022-09-12T10:48:33;23.80;55.00
7736;DHT22;3911;48.830;9.072;2022-09-12T10:51:00;23.80;55.00
7736;DHT22;3911;48.830;9.072;2022-09-12T10:53:27;23.90;55.20
7736;DHT22;3911;48.830;9.072;2022-09-12T10:56:16;23.80;55.00
7736;DHT22;3911;48.830;9.072;2022-09-12T10:59:05;23.90;55.30
7736;DHT22;3911;48.830;9.072;2022-09-12T11:01:36;23.80;55.20
7736;DHT22;3911;48.830;9.072;2022-09-12T11:06:51;23.80;55.80
7736;DHT22;3911;48.830;9.072;2022-09-12T11:09:19;23.80;55.00
7736;DHT22;3911;48.830;9.072;2022-09-12T11:11:49;23.80;55.00
7736;DHT22;3911;48.830;9.072;2022-09-12T11:14:27;23.80;55.10
7736;DHT22;3911;48.830;9.072;2022-09-12T11:16:56;23.80;55.10
7736;DHT22;3911;48.830;9.072;2022-09-12T11:19:30;23.80;55.10
7736;DHT22;3911;48.830;9.072;2022-09-12T11:22:00;23.80;55.00
7736;DHT22;3911;48.830;9.072;2022-09-12T11:24:38;23.80;55.10
7736;DHT22;3911;48.830;9.072;2022-09-12T11:29:56;23.80;54.90
7736;DHT22;3911;48.830;9.072;2022-09-12T11:32:38;23.80;55.00
7736;DHT22;3911;48.830;9.072;2022-09-12T11:35:07;23.80;55.00
7736;DHT22;3911;48.830;9.072;2022-09-12T11:40:22;23.90;55.40
7736;DHT22;3911;48.830;9.072;2022-09-12T11:42:43;23.80;55.00
7736;DHT22;3911;48.830;9.072;2022-09-12T11:45:21;23.80;55.00
7736;DHT22;3911;48.830;9.072;2022-09-12T11:47:50;23.80;55.00
7736;DHT22;3911;48.830;9.072;2022-09-12T11:50:31;23.80;55.80
7736;DHT22;3911;48.830;9.072;2022-09-12T11:53:22;23.80;55.00
7736;DHT22;3911;48.830;9.072;2022-09-12T11:55:52;23.80;55.00
7736;DHT22;3911;48.830;9.072;2022-09-12T11:58:16;23.90;55.00
7736;DHT22;3911;48.830;9.072;2022-09-12T12:00:45;23.90;54.90
7736;DHT22;3911;48.830;9.072;2022-09-12T12:03:30;24.00;54.90
7736;DHT22;3911;48.830;9.072;2022-09-12T12:06:14;24.00;54.80
7736;DHT22;3911;48.830;9.072;2022-09-12T12:08:40;24.10;54.60
7736;DHT22;3911;48.830;9.072;2022-09-12T12:11:06;24.10;54.50
7736;DHT22;3911;48.830;9.072;2022-09-12T12:13:37;24.20;54.40
7736;DHT22;3911;48.830;9.072;2022-09-12T12:16:05;24.20;54.20
7736;DHT22;3911;48.830;9.072;2022-09-12T12:18:31;24.30;54.00
7736;DHT22;3911;48.830;9.072;2022-09-12T12:23:37;24.40;53.60
7736;DHT22;3911;48.830;9.072;2022-09-12T12:26:03;24.50;53.60
7736;DHT22;3911;48.830;9.072;2022-09-12T12:28:56;24.50;53.40
7736;DHT22;3911;48.830;9.072;2022-09-12T12:31:21;24.60;53.30
7736;DHT22;3911;48.830;9.072;2022-09-12T12:33:51;24.60;53.10
7736;DHT22;3911;48.830;9.072;2022-09-12T12:36:29;24.60;52.90
7736;DHT22;3911;48.830;9.072;2022-09-12T12:38:54;24.70;52.80
7736;DHT22;3911;48.830;9.072;2022-09-12T12:41:42;24.90;52.70
7736;DHT22;3911;48.830;9.072;2022-09-12T12:44:52;24.90;52.40
7736;DHT22;3911;48.830;9.072;2022-09-12T12:47:10;25.20;51.80
7736;DHT22;3911;48.830;9.072;2022-09-12T12:49:34;25.20;51.80
7736;DHT22;3911;48.830;9.072;2022-09-12T12:52:01;25.50;51.30
7736;DHT22;3911;48.830;9.072;2022-09-12T12:54:29;25.40;51.20
7736;DHT22;3911;48.830;9.072;2022-09-12T12:57:01;25.70;51.40
7736;DHT22;3911;48.830;9.072;2022-09-12T12:59:26;25.70;50.80
7736;DHT22;3911;48.830;9.072;2022-09-12T13:01:53;25.80;50.60
7736;DHT22;3911;48.830;9.072;2022-09-12T13:04:20;25.90;50.30
7736;DHT22;3911;48.830;9.072;2022-09-12T13:06:54;26.00;50.20
7736;DHT22;3911;48.830;9.072;2022-09-12T13:09:20;26.10;50.10
7736;DHT22;3911;48.830;9.072;2022-09-12T13:11:45;26.00;50.00
7736;DHT22;3911;48.830;9.072;2022-09-12T13:16:53;26.20;50.00
7736;DHT22;3911;48.830;9.072;2022-09-12T13:19:22;26.20;50.00
7736;DHT22;3911;48.830;9.072;2022-09-12T13:21:58;26.20;49.90
7736;DHT22;3911;48.830;9.072;2022-09-12T13:24:21;26.30;49.90
7736;DHT22;3911;48.830;9.072;2022-09-12T13:26:48;26.30;49.90
7736;DHT22;3911;48.830;9.072;2022-09-12T13:29:17;26.30;49.90
7736;DHT22;3911;48.830;9.072;2022-09-12T13:31:44;26.40;49.90
7736;DHT22;3911;48.830;9.072;2022-09-12T13:34:12;26.40;49.90
7736;DHT22;3911;48.830;9.072;2022-09-12T13:36:51;26.40;50.00
7736;DHT22;3911;48.830;9.072;2022-09-12T13:39:23;26.40;50.20
7736;DHT22;3911;48.830;9.072;2022-09-12T13:42:03;26.40;50.20
7736;DHT22;3911;48.830;9.072;2022-09-12T13:44:30;26.50;50.20
7736;DHT22;3911;48.830;9.072;2022-09-12T13:46:58;26.60;50.80
7736;DHT22;3911;48.830;9.072;2022-09-12T13:49:33;26.60;49.80
7736;DHT22;3911;48.830;9.072;2022-09-12T13:52:01;26.70;50.10
7736;DHT22;3911;48.830;9.072;2022-09-12T13:54:27;26.70;49.70
7736;DHT22;3911;48.830;9.072;2022-09-12T13:56:53;26.70;49.60
7736;DHT22;3911;48.830;9.072;2022-09-12T13:59:20;26.70;49.70
7736;DHT22;3911;48.830;9.072;2022-09-12T14:01:47;26.70;50.50
7736;DHT22;3911;48.830;9.072;2022-09-12T14:04:18;26.70;49.50
7736;DHT22;3911;48.830;9.072;2022-09-12T14:06:50;26.70;49.50
7736;DHT22;3911;48.830;9.072;2022-09-12T14:09:22;26.70;49.50
7736;DHT22;3911;48.830;9.072;2022-09-12T14:11:48;26.70;49.50
7736;DHT22;3911;48.830;9.072;2022-09-12T14:14:28;26.70;49.40
7736;DHT22;3911;48.830;9.072;2022-09-12T14:16:54;26.70;49.40
7736;DHT22;3911;48.830;9.072;2022-09-12T14:19:23;26.80;49.30
7736;DHT22;3911;48.830;9.072;2022-09-12T14:21:51;26.80;49.50
7736;DHT22;3911;48.830;9.072;2022-09-12T14:24:18;26.80;49.30
7736;DHT22;3911;48.830;9.072;2022-09-12T14:26:45;26.80;49.30
7736;DHT22;3911;48.830;9.072;2022-09-12T14:29:13;26.70;49.20
7736;DHT22;3911;48.830;9.072;2022-09-12T14:31:40;26.60;49.40
7736;DHT22;3911;48.830;9.072;2022-09-12T14:34:15;26.60;49.50
7736;DHT22;3911;48.830;9.072;2022-09-12T14:36:45;26.60;49.50
7736;DHT22;3911;48.830;9.072;2022-09-12T14:39:17;26.60;49.80
7736;DHT22;3911;48.830;9.072;2022-09-12T14:41:43;26.60;49.60
7736;DHT22;3911;48.830;9.072;2022-09-12T14:44:15;26.60;49.00
7736;DHT22;3911;48.830;9.072;2022-09-12T14:46:40;26.40;47.70
7736;DHT22;3911;48.830;9.072;2022-09-12T14:49:08;26.40;46.90
7736;DHT22;3911;48.830;9.072;2022-09-12T14:51:36;26.30;48.50
7736;DHT22;3911;48.830;9.072;2022-09-12T14:54:01;26.30;48.50
7736;DHT22;3911;48.830;9.072;2022-09-12T14:56:36;26.20;49.00
7736;DHT22;3911;48.830;9.072;2022-09-12T15:01:40;26.20;49.40
7736;DHT22;3911;48.830;9.072;2022-09-12T15:04:07;26.10;48.40
7736;DHT22;3911;48.830;9.072;2022-09-12T15:06:34;26.10;47.70
7736;DHT22;3911;48.830;9.072;2022-09-12T15:09:02;26.00;47.60
7736;DHT22;3911;48.830;9.072;2022-09-12T15:11:27;26.00;45.50
7736;DHT22;3911;48.830;9.072;2022-09-12T15:13:54;25.90;46.30
7736;DHT22;3911;48.830;9.072;2022-09-12T15:16:20;25.90;45.80
7736;DHT22;3911;48.830;9.072;2022-09-12T15:18:47;25.90;45.30
7736;DHT22;3911;48.830;9.072;2022-09-12T15:21:16;25.80;45.20
7736;DHT22;3911;48.830;9.072;2022-09-12T15:23:46;25.80;45.20
7736;DHT22;3911;48.830;9.072;2022-09-12T15:26:14;25.70;45.20
7736;DHT22;3911;48.830;9.072;2022-09-12T15:28:39;25.60;45.30
7736;DHT22;3911;48.830;9.072;2022-09-12T15:31:25;25.60;45.50
7736;DHT22;3911;48.830;9.072;2022-09-12T15:33:51;25.60;45.50
7736;DHT22;3911;48.830;9.072;2022-09-12T15:36:18;25.60;44.20
7736;DHT22;3911;48.830;9.072;2022-09-12T15:38:44;25.50;45.70
7736;DHT22;3911;48.830;9.072;2022-09-12T15:41:19;25.60;47.00
7736;DHT22;3911;48.830;9.072;2022-09-12T15:43:46;25.60;48.30
7736;DHT22;3911;48.830;9.072;2022-09-12T15:46:13;25.30;49.40
7736;DHT22;3911;48.830;9.072;2022-09-12T15:48:40;25.10;49.20
7736;DHT22;3911;48.830;9.072;2022-09-12T15:51:10;25.10;49.60
7736;DHT22;3911;48.830;9.072;2022-09-12T15:53:36;25.10;49.50
7736;DHT22;3911;48.830;9.072;2022-09-12T15:56:02;25.00;49.70
7736;DHT22;3911;48.830;9.072;2022-09-12T15:58:29;25.00;49.90
7736;DHT22;3911;48.830;9.072;2022-09-12T16:00:56;24.90;50.30
7736;DHT22;3911;48.830;9.072;2022-09-12T16:03:24;24.90;50.40
7736;DHT22;3911;48.830;9.072;2022-09-12T16:05:59;24.90;50.50
7736;DHT22;3911;48.830;9.072;2022-09-12T16:08:27;24.90;50.50
7736;DHT22;3911;48.830;9.072;2022-09-12T16:10:55;24.90;51.10
7736;DHT22;3911;48.830;9.072;2022-09-12T16:13:22;24.90;51.10
7736;DHT22;3911;48.830;9.072;2022-09-12T16:15:49;24.80;51.00
7736;DHT22;3911;48.830;9.072;2022-09-12T16:18:15;24.80;51.20
7736;DHT22;3911;48.830;9.072;2022-09-12T16:20:41;24.90;51.40
7736;DHT22;3911;48.830;9.072;2022-09-12T16:23:10;24.80;51.70
7736;DHT22;3911;48.830;9.072;2022-09-12T16:25:36;24.80;51.60
7736;DHT22;3911;48.830;9.072;2022-09-12T16:28:03;24.90;52.00
7736;DHT22;3911;48.830;9.072;2022-09-12T16:30:31;24.80;52.30
7736;DHT22;3911;48.830;9.072;2022-09-12T16:32:58;24.80;52.40
7736;DHT22;3911;48.830;9.072;2022-09-12T16:35:25;24.90;52.60
7736;DHT22;3911;48.830;9.072;2022-09-12T16:37:52;24.90;52.70
7736;DHT22;3911;48.830;9.072;2022-09-12T16:40:19;24.90;52.70
7736;DHT22;3911;48.830;9.072;2022-09-12T16:42:46;24.90;52.80
7736;DHT22;3911;48.830;9.072;2022-09-12T16:45:12;24.90;52.70
7736;DHT22;3911;48.830;9.072;2022-09-12T16:47:39;24.90;52.90
7736;DHT22;3911;48.830;9.072;2022-09-12T16:50:06;24.90;53.20
7736;DHT22;3911;48.830;9.072;2022-09-12T16:52:33;24.90;54.10
7736;DHT22;3911;48.830;9.072;2022-09-12T16:54:59;24.90;53.40